sensor_id;sensor_type;location;lat;lon;timestamp;pressure;altitude;pressure_sealevel;temperature;humidity
11987;BME280;6053;51.382;6.768;2022-09-09T00:01:28;100475.28;;;20.43;100.00
11987;BME280;6053;51.382;6.768;2022-09-09T00:04:09;100469.63;;;20.94;100.00
11987;BME280;6053;51.382;6.768;2022-09-09T00:06:45;100477.78;;;20.63;100.00
11987;BME280;6053;51.382;6.768;2022-09-09T00:09:17;100477.84;;;19.11;100.00
11987;BME280;6053;51.382;6.768;2022-09-09T00:11:50;100473.16;;;19.54;100.00
11987;BME280;6053;51.382;6.768;2022-09-09T00:14:25;100476.63;;;17.80;100.00
11987;BME280;6053;51.382;6.768;2022-09-09T00:17:04;100482.19;;;17.85;100.00
11987;BME280;6053;51.382;6.768;2022-09-09T00:19:41;100475.47;;;17.91;100.00
11987;BME280;6053;51.382;6.768;2022-09-09T00:22:17;100474.47;;;18.16;100.00
11987;BME280;6053;51.382;6.768;2022-09-09T00:24:48;100471.50;;;18.76;100.00
11987;BME280;6053;51.382;6.768;2022-09-09T00:27:25;100470.44;;;18.72;100.00
11987;BME280;6053;51.382;6.768;2022-09-09T00:30:00;100476.59;;;18.29;100.00
11987;BME280;6053;51.382;6.768;2022-09-09T00:32:33;100468.38;;;17.49;100.00
11987;BME280;6053;51.382;6.768;2022-09-09T00:35:12;100465.13;;;17.92;100.00
11987;BME280;6053;51.382;6.768;2022-09-09T00:37:44;100469.63;;;18.61;100.00
11987;BME280;6053;51.382;6.768;2022-09-09T00:40:22;100467.25;;;18.10;100.00
11987;BME280;6053;51.382;6.768;2022-09-09T00:43:01;100469.13;;;16.80;100.00
11987;BME280;6053;51.382;6.768;2022-09-09T00:48:35;100473.53;;;18.31;100.00
11987;BME280;6053;51.382;6.768;2022-09-09T00:51:12;100468.81;;;18.95;100.00
11987;BME280;6053;51.382;6.768;2022-09-09T00:54:01;100474.66;;;17.85;100.00
11987;BME280;6053;51.382;6.768;2022-09-09T00:56:38;100472.81;;;17.55;100.00
11987;BME280;6053;51.382;6.768;2022-09-09T00:59:21;100473.84;;;17.80;100.00
11987;BME280;6053;51.382;6.768;2022-09-09T01:01:55;100462.69;;;17.70;100.00
11987;BME280;6053;51.382;6.768;2022-09-09T01:04:29;100463.22;;;17.82;100.00
11987;BME280;6053;51.382;6.768;2022-09-09T01:07:06;100458.13;;;18.68;100.00
11987;BME280;6053;51.382;6.768;2022-09-09T01:09:50;100461.06;;;19.11;100.00
11987;BME280;6053;51.382;6.768;2022-09-09T01:12:26;100467.66;;;18.27;100.00
11987;BME280;6053;51.382;6.768;2022-09-09T01:15:01;100470.34;;;19.54;100.00
11987;BME280;6053;51.382;6.768;2022-09-09T01:17:34;100470.31;;;19.35;100.00
11987;BME280;6053;51.382;6.768;2022-09-09T01:20:10;100453.88;;;19.52;100.00
11987;BME280;6053;51.382;6.768;2022-09-09T01:22:52;100453.88;;;19.04;100.00
11987;BME280;6053;51.382;6.768;2022-09-09T01:25:29;100450.34;;;18.94;100.00
11987;BME280;6053;51.382;6.768;2022-09-09T01:28:03;100450.25;;;19.52;100.00
11987;BME280;6053;51.382;6.768;2022-09-09T01:30:34;100454.03;;;19.85;100.00
11987;BME280;6053;51.382;6.768;2022-09-09T01:33:04;100453.53;;;19.35;100.00
11987;BME280;6053;51.382;6.768;2022-09-09T01:35:50;100456.97;;;19.51;100.00
11987;BME280;6053;51.382;6.768;2022-09-09T01:38:22;100445.88;;;19.22;100.00
11987;BME280;6053;51.382;6.768;2022-09-09T01:40:52;100460.63;;;20.13;100.00
11987;BME280;6053;51.382;6.768;2022-09-09T01:43:24;100447.66;;;19.98;100.00
11987;BME280;6053;51.382;6.768;2022-09-09T01:45:55;100447.16;;;19.96;100.00
11987;BME280;6053;51.382;6.768;2022-09-09T01:48:24;100441.53;;;20.15;100.00
11987;BME280;6053;51.382;6.768;2022-09-09T01:50:53;100456.06;;;20.69;100.00
11987;BME280;6053;51.382;6.768;2022-09-09T01:53:22;100445.22;;;18.43;100.00
11987;BME280;6053;51.382;6.768;2022-09-09T01:55:58;100443.56;;;17.48;100.00
11987;BME280;6053;51.382;6.768;2022-09-09T01:58:39;100448.16;;;18.91;100.00
11987;BME280;6053;51.382;6.768;2022-09-09T02:01:22;100449.59;;;18.88;100.00
11987;BME280;6053;51.382;6.768;2022-09-09T02:03:57;100444.22;;;18.63;100.00
11987;BME280;6053;51.382;6.768;2022-09-09T02:06:31;100444.97;;;19.26;100.00
11987;BME280;6053;51.382;6.768;2022-09-09T02:09:03;100445.78;;;19.27;100.00
11987;BME280;6053;51.382;6.768;2022-09-09T02:11:33;100448.31;;;18.75;100.00
11987;BME280;6053;51.382;6.768;2022-09-09T02:14:07;100447.63;;;17.11;100.00
11987;BME280;6053;51.382;6.768;2022-09-09T02:16:40;100445.66;;;17.06;100.00
11987;BME280;6053;51.382;6.768;2022-09-09T02:19:13;100438.72;;;17.04;100.00
11987;BME280;6053;51.382;6.768;2022-09-09T02:21:44;100447.41;;;16.87;100.00
11987;BME280;6053;51.382;6.768;2022-09-09T02:24:15;100438.72;;;16.99;100.00
11987;BME280;6053;51.382;6.768;2022-09-09T02:26:46;100440.66;;;17.03;100.00
11987;BME280;6053;51.382;6.768;2022-09-09T02:29:20;100435.69;;;18.49;100.00
11987;BME280;6053;51.382;6.768;2022-09-09T02:31:52;100446.34;;;19.05;100.00
11987;BME280;6053;51.382;6.768;2022-09-09T02:34:24;100447.63;;;18.89;100.00
11987;BME280;6053;51.382;6.768;2022-09-09T02:36:55;100437.66;;;18.77;100.00
11987;BME280;6053;51.382;6.768;2022-09-09T02:39:25;100442.88;;;17.81;100.00
11987;BME280;6053;51.382;6.768;2022-09-09T02:41:54;100442.72;;;18.75;100.00
11987;BME280;6053;51.382;6.768;2022-09-09T02:44:25;100439.38;;;18.05;100.00
11987;BME280;6053;51.382;6.768;2022-09-09T02:47:16;100437.31;;;17.06;100.00
11987;BME280;6053;51.382;6.768;2022-09-09T02:49:55;100429.88;;;16.40;100.00
11987;BME280;6053;51.382;6.768;2022-09-09T02:52:30;100434.19;;;17.28;100.00
11987;BME280;6053;51.382;6.768;2022-09-09T02:55:07;100429.81;;;17.02;100.00
11987;BME280;6053;51.382;6.768;2022-09-09T02:57:39;100428.88;;;18.26;100.00
11987;BME280;6053;51.382;6.768;2022-09-09T03:00:12;100431.34;;;18.32;100.00
11987;BME280;6053;51.382;6.768;2022-09-09T03:02:41;100428.59;;;17.88;100.00
11987;BME280;6053;51.382;6.768;2022-09-09T03:05:10;100421.47;;;17.61;100.00
11987;BME280;6053;51.382;6.768;2022-09-09T03:07:40;100428.25;;;17.45;100.00
11987;BME280;6053;51.382;6.768;2022-09-09T03:10:09;100421.47;;;16.86;100.00
11987;BME280;6053;51.382;6.768;2022-09-09T03:12:37;100421.16;;;17.63;100.00
11987;BME280;6053;51.382;6.768;2022-09-09T03:15:08;100429.09;;;18.64;100.00
11987;BME280;6053;51.382;6.768;2022-09-09T03:17:38;100427.59;;;18.13;100.00
11987;BME280;6053;51.382;6.768;2022-09-09T03:20:07;100427.94;;;18.75;100.00
11987;BME280;6053;51.382;6.768;2022-09-09T03:22:36;100429.00;;;18.10;100.00
11987;BME280;6053;51.382;6.768;2022-09-09T03:25:06;100430.44;;;18.71;100.00
11987;BME280;6053;51.382;6.768;2022-09-09T03:27:34;100425.09;;;18.46;100.00
11987;BME280;6053;51.382;6.768;2022-09-09T03:30:04;100420.81;;;18.24;100.00
11987;BME280;6053;51.382;6.768;2022-09-09T03:32:33;100426.56;;;18.38;100.00
11987;BME280;6053;51.382;6.768;2022-09-09T03:35:03;100418.09;;;18.77;100.00
11987;BME280;6053;51.382;6.768;2022-09-09T03:37:31;100426.09;;;18.89;100.00
11987;BME280;6053;51.382;6.768;2022-09-09T03:40:00;100431.28;;;18.37;100.00
11987;BME280;6053;51.382;6.768;2022-09-09T03:42:29;100427.66;;;18.71;100.00
11987;BME280;6053;51.382;6.768;2022-09-09T03:44:59;100428.59;;;18.91;100.00
11987;BME280;6053;51.382;6.768;2022-09-09T03:47:27;100422.34;;;18.75;100.00
11987;BME280;6053;51.382;6.768;2022-09-09T03:49:56;100425.13;;;18.70;100.00
11987;BME280;6053;51.382;6.768;2022-09-09T03:52:26;100423.03;;;17.23;100.00
11987;BME280;6053;51.382;6.768;2022-09-09T03:54:55;100422.56;;;17.60;100.00
11987;BME280;6053;51.382;6.768;2022-09-09T03:57:23;100421.78;;;18.73;100.00
11987;BME280;6053;51.382;6.768;2022-09-09T03:59:51;100420.50;;;18.89;100.00
11987;BME280;6053;51.382;6.768;2022-09-09T04:02:20;100415.94;;;18.98;100.00
11987;BME280;6053;51.382;6.768;2022-09-09T04:04:48;100429.72;;;19.81;100.00
11987;BME280;6053;51.382;6.768;2022-09-09T04:07:16;100412.72;;;19.10;100.00
11987;BME280;6053;51.382;6.768;2022-09-09T04:09:46;100419.69;;;18.89;100.00
11987;BME280;6053;51.382;6.768;2022-09-09T04:12:14;100418.47;;;18.66;100.00
11987;BME280;6053;51.382;6.768;2022-09-09T04:14:43;100413.69;;;18.37;100.00
11987;BME280;6053;51.382;6.768;2022-09-09T04:17:11;100426.91;;;19.38;100.00
11987;BME280;6053;51.382;6.768;2022-09-09T04:19:40;100425.91;;;19.95;100.00
11987;BME280;6053;51.382;6.768;2022-09-09T04:22:09;100427.31;;;19.74;100.00
11987;BME280;6053;51.382;6.768;2022-09-09T04:24:37;100427.78;;;19.57;100.00
11987;BME280;6053;51.382;6.768;2022-09-09T04:27:07;100427.69;;;19.86;100.00
11987;BME280;6053;51.382;6.768;2022-09-09T04:29:35;100426.41;;;19.36;100.00
11987;BME280;6053;51.382;6.768;2022-09-09T04:32:03;100425.47;;;18.63;100.00
11987;BME280;6053;51.382;6.768;2022-09-09T04:34:32;100434.34;;;18.75;100.00
11987;BME280;6053;51.382;6.768;2022-09-09T04:37:00;100427.84;;;18.80;100.00
11987;BME280;6053;51.382;6.768;2022-09-09T04:39:28;100416.09;;;17.70;100.00
11987;BME280;6053;51.382;6.768;2022-09-09T04:41:57;100416.88;;;17.86;100.00
11987;BME280;6053;51.382;6.768;2022-09-09T04:44:26;100426.06;;;17.92;100.00
11987;BME280;6053;51.382;6.768;2022-09-09T04:46:54;100424.13;;;17.87;100.00
11987;BME280;6053;51.382;6.768;2022-09-09T04:49:23;100431.13;;;17.25;100.00
11987;BME280;6053;51.382;6.768;2022-09-09T04:51:51;100418.53;;;17.37;100.00
11987;BME280;6053;51.382;6.768;2022-09-09T04:54:19;100426.16;;;18.16;100.00
11987;BME280;6053;51.382;6.768;2022-09-09T04:56:50;100428.84;;;18.60;100.00
11987;BME280;6053;51.382;6.768;2022-09-09T04:59:18;100426.16;;;17.11;100.00
11987;BME280;6053;51.382;6.768;2022-09-09T05:01:48;100432.03;;;17.00;100.00
11987;BME280;6053;51.382;6.768;2022-09-09T05:04:17;100425.50;;;17.89;100.00
11987;BME280;6053;51.382;6.768;2022-09-09T05:06:46;100427.16;;;17.96;100.00
11987;BME280;6053;51.382;6.768;2022-09-09T05:09:15;100421.22;;;17.53;100.00
11987;BME280;6053;51.382;6.768;2022-09-09T05:11:43;100419.56;;;17.47;100.00
11987;BME280;6053;51.382;6.768;2022-09-09T05:14:11;100420.66;;;16.81;100.00
11987;BME280;6053;51.382;6.768;2022-09-09T05:16:39;100431.22;;;18.48;100.00
11987;BME280;6053;51.382;6.768;2022-09-09T05:19:10;100428.97;;;18.16;100.00
11987;BME280;6053;51.382;6.768;2022-09-09T05:21:38;100429.47;;;17.13;100.00
11987;BME280;6053;51.382;6.768;2022-09-09T05:24:08;100422.50;;;17.76;100.00
11987;BME280;6053;51.382;6.768;2022-09-09T05:26:36;100418.47;;;17.48;100.00
11987;BME280;6053;51.382;6.768;2022-09-09T05:29:05;100413.06;;;17.66;100.00
11987;BME280;6053;51.382;6.768;2022-09-09T05:31:33;100411.63;;;18.19;100.00
11987;BME280;6053;51.382;6.768;2022-09-09T05:34:02;100413.72;;;17.48;100.00
11987;BME280;6053;51.382;6.768;2022-09-09T05:36:31;100412.53;;;18.09;100.00
11987;BME280;6053;51.382;6.768;2022-09-09T05:39:00;100408.72;;;17.45;100.00
11987;BME280;6053;51.382;6.768;2022-09-09T05:41:28;100409.84;;;18.33;100.00
11987;BME280;6053;51.382;6.768;2022-09-09T05:43:57;100409.59;;;17.40;100.00
11987;BME280;6053;51.382;6.768;2022-09-09T05:46:28;100419.75;;;17.11;100.00
11987;BME280;6053;51.382;6.768;2022-09-09T05:48:56;100415.03;;;17.66;100.00
11987;BME280;6053;51.382;6.768;2022-09-09T05:51:28;100418.13;;;17.64;100.00
11987;BME280;6053;51.382;6.768;2022-09-09T05:53:58;100422.25;;;18.17;100.00
11987;BME280;6053;51.382;6.768;2022-09-09T05:56:28;100415.69;;;17.48;100.00
11987;BME280;6053;51.382;6.768;2022-09-09T05:58:58;100421.44;;;17.66;100.00
11987;BME280;6053;51.382;6.768;2022-09-09T06:01:29;100425.00;;;17.82;100.00
11987;BME280;6053;51.382;6.768;2022-09-09T06:03:59;100427.88;;;18.11;100.00
11987;BME280;6053;51.382;6.768;2022-09-09T06:06:31;100429.50;;;17.78;100.00
11987;BME280;6053;51.382;6.768;2022-09-09T06:09:07;100423.28;;;17.92;100.00
11987;BME280;6053;51.382;6.768;2022-09-09T06:11:38;100430.28;;;18.57;100.00
11987;BME280;6053;51.382;6.768;2022-09-09T06:14:08;100431.84;;;18.05;100.00
11987;BME280;6053;51.382;6.768;2022-09-09T06:16:36;100433.16;;;17.68;100.00
11987;BME280;6053;51.382;6.768;2022-09-09T06:19:05;100429.72;;;17.27;100.00
11987;BME280;6053;51.382;6.768;2022-09-09T06:21:36;100436.91;;;17.38;100.00
11987;BME280;6053;51.382;6.768;2022-09-09T06:24:06;100438.22;;;17.56;100.00
11987;BME280;6053;51.382;6.768;2022-09-09T06:26:38;100444.81;;;17.76;100.00
11987;BME280;6053;51.382;6.768;2022-09-09T06:29:07;100446.06;;;18.04;100.00
11987;BME280;6053;51.382;6.768;2022-09-09T06:31:36;100437.56;;;17.80;100.00
11987;BME280;6053;51.382;6.768;2022-09-09T06:34:07;100439.72;;;17.93;100.00
11987;BME280;6053;51.382;6.768;2022-09-09T06:36:38;100435.53;;;17.90;100.00
11987;BME280;6053;51.382;6.768;2022-09-09T06:39:08;100441.72;;;17.87;100.00
11987;BME280;6053;51.382;6.768;2022-09-09T06:41:41;100437.59;;;18.19;100.00
11987;BME280;6053;51.382;6.768;2022-09-09T06:44:10;100438.78;;;17.58;100.00
11987;BME280;6053;51.382;6.768;2022-09-09T06:46:39;100437.72;;;18.38;100.00
11987;BME280;6053;51.382;6.768;2022-09-09T06:49:08;100437.72;;;18.38;100.00
11987;BME280;6053;51.382;6.768;2022-09-09T06:51:37;100446.16;;;19.87;100.00
11987;BME280;6053;51.382;6.768;2022-09-09T06:54:12;100443.59;;;19.24;100.00
11987;BME280;6053;51.382;6.768;2022-09-09T06:56:41;100452.28;;;19.46;100.00
11987;BME280;6053;51.382;6.768;2022-09-09T06:59:11;100443.94;;;19.41;100.00
11987;BME280;6053;51.382;6.768;2022-09-09T07:01:41;100449.19;;;19.24;100.00
11987;BME280;6053;51.382;6.768;2022-09-09T07:04:11;100443.16;;;19.60;100.00
11987;BME280;6053;51.382;6.768;2022-09-09T07:06:44;100453.34;;;19.02;100.00
11987;BME280;6053;51.382;6.768;2022-09-09T07:09:15;100450.84;;;19.49;100.00
11987;BME280;6053;51.382;6.768;2022-09-09T07:11:46;100455.28;;;19.74;100.00
11987;BME280;6053;51.382;6.768;2022-09-09T07:14:15;100452.53;;;19.26;100.00
11987;BME280;6053;51.382;6.768;2022-09-09T07:16:45;100455.63;;;19.48;100.00
11987;BME280;6053;51.382;6.768;2022-09-09T07:19:14;100450.94;;;18.61;100.00
11987;BME280;6053;51.382;6.768;2022-09-09T07:21:43;100452.63;;;18.92;100.00
11987;BME280;6053;51.382;6.768;2022-09-09T07:24:13;100455.00;;;18.74;100.00
11987;BME280;6053;51.382;6.768;2022-09-09T07:26:42;100466.44;;;18.44;100.00
11987;BME280;6053;51.382;6.768;2022-09-09T07:29:12;100462.69;;;18.58;100.00
11987;BME280;6053;51.382;6.768;2022-09-09T07:31:46;100462.97;;;18.57;100.00
11987;BME280;6053;51.382;6.768;2022-09-09T07:34:15;100467.50;;;20.21;100.00
11987;BME280;6053;51.382;6.768;2022-09-09T07:36:43;100470.25;;;18.87;100.00
11987;BME280;6053;51.382;6.768;2022-09-09T07:39:14;100476.75;;;18.82;100.00
11987;BME280;6053;51.382;6.768;2022-09-09T07:41:46;100468.72;;;18.71;100.00
11987;BME280;6053;51.382;6.768;2022-09-09T07:44:16;100469.28;;;19.02;100.00
11987;BME280;6053;51.382;6.768;2022-09-09T07:46:45;100487.75;;;18.69;100.00
11987;BME280;6053;51.382;6.768;2022-09-09T07:49:15;100484.50;;;19.15;100.00
11987;BME280;6053;51.382;6.768;2022-09-09T07:51:52;100485.59;;;19.19;100.00
11987;BME280;6053;51.382;6.768;2022-09-09T07:54:22;100486.66;;;18.99;100.00
11987;BME280;6053;51.382;6.768;2022-09-09T07:56:51;100489.28;;;19.62;100.00
11987;BME280;6053;51.382;6.768;2022-09-09T07:59:19;100491.75;;;19.69;100.00
11987;BME280;6053;51.382;6.768;2022-09-09T08:01:50;100495.78;;;21.92;100.00
11987;BME280;6053;51.382;6.768;2022-09-09T08:04:23;100499.63;;;21.82;100.00
11987;BME280;6053;51.382;6.768;2022-09-09T08:06:55;100492.44;;;19.98;100.00
11987;BME280;6053;51.382;6.768;2022-09-09T08:09:27;100490.44;;;19.85;100.00
11987;BME280;6053;51.382;6.768;2022-09-09T08:11:57;100487.66;;;18.05;100.00
11987;BME280;6053;51.382;6.768;2022-09-09T08:14:25;100474.41;;;19.19;100.00
11987;BME280;6053;51.382;6.768;2022-09-09T08:16:53;100489.97;;;19.97;100.00
11987;BME280;6053;51.382;6.768;2022-09-09T08:19:23;100484.09;;;19.50;100.00
11987;BME280;6053;51.382;6.768;2022-09-09T08:21:51;100487.16;;;20.73;100.00
11987;BME280;6053;51.382;6.768;2022-09-09T08:24:21;100484.06;;;21.34;100.00
11987;BME280;6053;51.382;6.768;2022-09-09T08:26:51;100496.31;;;19.60;100.00
11987;BME280;6053;51.382;6.768;2022-09-09T08:29:20;100492.16;;;20.00;100.00
11987;BME280;6053;51.382;6.768;2022-09-09T08:31:52;100490.72;;;20.21;100.00
11987;BME280;6053;51.382;6.768;2022-09-09T08:34:21;100502.03;;;19.73;100.00
11987;BME280;6053;51.382;6.768;2022-09-09T08:36:51;100500.47;;;21.55;100.00
11987;BME280;6053;51.382;6.768;2022-09-09T08:39:21;100490.03;;;21.00;100.00
11987;BME280;6053;51.382;6.768;2022-09-09T08:42:24;100489.56;;;20.41;100.00
11987;BME280;6053;51.382;6.768;2022-09-09T08:45:12;100483.28;;;20.68;100.00
11987;BME280;6053;51.382;6.768;2022-09-09T08:47:52;100482.88;;;20.23;100.00
11987;BME280;6053;51.382;6.768;2022-09-09T08:50:25;100495.28;;;20.88;100.00
11987;BME280;6053;51.382;6.768;2022-09-09T08:53:01;100489.63;;;21.07;100.00
11987;BME280;6053;51.382;6.768;2022-09-09T08:55:40;100486.59;;;22.00;100.00
11987;BME280;6053;51.382;6.768;2022-09-09T08:58:14;100486.88;;;21.48;100.00
11987;BME280;6053;51.382;6.768;2022-09-09T09:01:14;100484.53;;;21.23;100.00
11987;BME280;6053;51.382;6.768;2022-09-09T09:03:52;100485.50;;;20.15;100.00
11987;BME280;6053;51.382;6.768;2022-09-09T09:06:39;100487.06;;;21.38;100.00
11987;BME280;6053;51.382;6.768;2022-09-09T09:09:18;100496.22;;;20.83;100.00
11987;BME280;6053;51.382;6.768;2022-09-09T09:11:52;100499.88;;;19.89;100.00
11987;BME280;6053;51.382;6.768;2022-09-09T09:14:24;100495.66;;;22.47;100.00
11987;BME280;6053;51.382;6.768;2022-09-09T09:16:56;100502.13;;;20.95;100.00
11987;BME280;6053;51.382;6.768;2022-09-09T09:19:26;100509.06;;;20.84;100.00
11987;BME280;6053;51.382;6.768;2022-09-09T09:22:01;100496.25;;;20.27;100.00
11987;BME280;6053;51.382;6.768;2022-09-09T09:24:42;100499.03;;;21.71;100.00
11987;BME280;6053;51.382;6.768;2022-09-09T09:27:16;100490.81;;;21.75;100.00
11987;BME280;6053;51.382;6.768;2022-09-09T09:29:50;100499.00;;;21.30;100.00
11987;BME280;6053;51.382;6.768;2022-09-09T09:32:40;100500.75;;;20.09;100.00
11987;BME280;6053;51.382;6.768;2022-09-09T09:35:13;100497.25;;;21.61;100.00
11987;BME280;6053;51.382;6.768;2022-09-09T09:37:41;100503.88;;;22.43;100.00
11987;BME280;6053;51.382;6.768;2022-09-09T09:40:31;100511.66;;;21.27;100.00
11987;BME280;6053;51.382;6.768;2022-09-09T09:43:01;100509.88;;;21.17;100.00
11987;BME280;6053;51.382;6.768;2022-09-09T09:45:43;100511.59;;;20.48;100.00
11987;BME280;6053;51.382;6.768;2022-09-09T09:48:32;100507.59;;;19.97;100.00
11987;BME280;6053;51.382;6.768;2022-09-09T09:51:04;100509.09;;;21.72;100.00
11987;BME280;6053;51.382;6.768;2022-09-09T09:53:37;100505.94;;;20.34;100.00
11987;BME280;6053;51.382;6.768;2022-09-09T09:56:08;100505.94;;;21.18;100.00
11987;BME280;6053;51.382;6.768;2022-09-09T09:58:49;100507.78;;;22.56;100.00
11987;BME280;6053;51.382;6.768;2022-09-09T10:01:25;100505.41;;;23.57;97.77
11987;BME280;6053;51.382;6.768;2022-09-09T10:03:58;100505.53;;;23.83;89.67
11987;BME280;6053;51.382;6.768;2022-09-09T10:06:31;100504.00;;;22.83;88.05
11987;BME280;6053;51.382;6.768;2022-09-09T10:09:01;100512.13;;;23.07;99.71
11987;BME280;6053;51.382;6.768;2022-09-09T10:11:43;100508.47;;;21.34;92.64
11987;BME280;6053;51.382;6.768;2022-09-09T10:14:20;100503.91;;;21.38;100.00
11987;BME280;6053;51.382;6.768;2022-09-09T10:17:07;100500.47;;;21.69;100.00
11987;BME280;6053;51.382;6.768;2022-09-09T10:19:44;100492.78;;;20.86;97.50
11987;BME280;6053;51.382;6.768;2022-09-09T10:22:26;100495.03;;;21.86;98.51
11987;BME280;6053;51.382;6.768;2022-09-09T10:25:28;100491.31;;;21.49;95.99
11987;BME280;6053;51.382;6.768;2022-09-09T10:28:31;100483.97;;;21.53;100.00
11987;BME280;6053;51.382;6.768;2022-09-09T10:31:16;100484.75;;;21.81;100.00
11987;BME280;6053;51.382;6.768;2022-09-09T10:33:57;100488.47;;;20.42;100.00
11987;BME280;6053;51.382;6.768;2022-09-09T10:36:28;100484.06;;;20.17;100.00
11987;BME280;6053;51.382;6.768;2022-09-09T10:39:14;100491.84;;;20.91;100.00
11987;BME280;6053;51.382;6.768;2022-09-09T10:41:55;100484.03;;;20.74;100.00
11987;BME280;6053;51.382;6.768;2022-09-09T10:44:57;100483.06;;;20.65;100.00
11987;BME280;6053;51.382;6.768;2022-09-09T10:48:04;100484.25;;;21.79;99.99
11987;BME280;6053;51.382;6.768;2022-09-09T10:50:57;100483.59;;;21.00;100.00
11987;BME280;6053;51.382;6.768;2022-09-09T10:53:37;100484.19;;;21.43;97.00
11987;BME280;6053;51.382;6.768;2022-09-09T10:56:13;100482.47;;;21.28;97.85
11987;BME280;6053;51.382;6.768;2022-09-09T10:58:50;100469.31;;;20.31;100.00
11987;BME280;6053;51.382;6.768;2022-09-09T11:01:24;100467.19;;;21.76;100.00
11987;BME280;6053;51.382;6.768;2022-09-09T11:03:57;100472.28;;;21.87;97.50
11987;BME280;6053;51.382;6.768;2022-09-09T11:06:37;100461.72;;;21.43;100.00
11987;BME280;6053;51.382;6.768;2022-09-09T11:09:15;100469.25;;;21.01;98.28
11987;BME280;6053;51.382;6.768;2022-09-09T11:11:49;100463.13;;;21.82;98.90
11987;BME280;6053;51.382;6.768;2022-09-09T11:14:28;100461.59;;;21.62;98.68
11987;BME280;6053;51.382;6.768;2022-09-09T11:17:08;100467.47;;;21.19;100.00
11987;BME280;6053;51.382;6.768;2022-09-09T11:19:40;100464.84;;;20.95;98.15
11987;BME280;6053;51.382;6.768;2022-09-09T11:22:18;100464.97;;;20.90;100.00
11987;BME280;6053;51.382;6.768;2022-09-09T11:24:54;100472.78;;;22.03;100.00
11987;BME280;6053;51.382;6.768;2022-09-09T11:27:32;100470.09;;;21.84;94.40
11987;BME280;6053;51.382;6.768;2022-09-09T11:30:18;100464.09;;;21.77;100.00
11987;BME280;6053;51.382;6.768;2022-09-09T11:33:33;100471.97;;;21.20;96.99
11987;BME280;6053;51.382;6.768;2022-09-09T11:36:43;100467.47;;;21.05;96.27
11987;BME280;6053;51.382;6.768;2022-09-09T11:39:48;100465.03;;;20.71;98.65
11987;BME280;6053;51.382;6.768;2022-09-09T11:42:24;100461.38;;;20.70;99.77
11987;BME280;6053;51.382;6.768;2022-09-09T11:44:52;100470.63;;;21.31;100.00
11987;BME280;6053;51.382;6.768;2022-09-09T11:47:25;100469.94;;;21.67;98.15
11987;BME280;6053;51.382;6.768;2022-09-09T11:50:10;100466.94;;;20.89;98.00
11987;BME280;6053;51.382;6.768;2022-09-09T11:53:16;100470.50;;;20.62;100.00
11987;BME280;6053;51.382;6.768;2022-09-09T11:56:05;100464.84;;;21.41;100.00
11987;BME280;6053;51.382;6.768;2022-09-09T11:58:39;100468.44;;;21.14;99.54
11987;BME280;6053;51.382;6.768;2022-09-09T12:01:37;100460.13;;;20.44;98.91
11987;BME280;6053;51.382;6.768;2022-09-09T12:04:28;100461.41;;;20.84;100.00
11987;BME280;6053;51.382;6.768;2022-09-09T12:07:04;100462.25;;;20.52;100.00
11987;BME280;6053;51.382;6.768;2022-09-09T12:09:46;100458.63;;;21.95;100.00
11987;BME280;6053;51.382;6.768;2022-09-09T12:12:30;100464.84;;;22.05;98.39
11987;BME280;6053;51.382;6.768;2022-09-09T12:15:25;100474.06;;;21.83;100.00
11987;BME280;6053;51.382;6.768;2022-09-09T12:17:57;100468.66;;;21.87;100.00
11987;BME280;6053;51.382;6.768;2022-09-09T12:20:36;100462.78;;;21.97;98.31
11987;BME280;6053;51.382;6.768;2022-09-09T12:23:24;100472.66;;;22.45;97.64
11987;BME280;6053;51.382;6.768;2022-09-09T12:29:05;100479.03;;;21.17;100.00
11987;BME280;6053;51.382;6.768;2022-09-09T12:31:44;100474.50;;;21.77;100.00
11987;BME280;6053;51.382;6.768;2022-09-09T12:34:17;100481.78;;;21.64;100.00
11987;BME280;6053;51.382;6.768;2022-09-09T12:36:53;100491.50;;;20.79;100.00
11987;BME280;6053;51.382;6.768;2022-09-09T12:39:30;100495.31;;;21.02;100.00
11987;BME280;6053;51.382;6.768;2022-09-09T12:42:00;100492.59;;;19.88;100.00
11987;BME280;6053;51.382;6.768;2022-09-09T12:44:32;100489.28;;;19.62;100.00
11987;BME280;6053;51.382;6.768;2022-09-09T12:47:02;100486.06;;;19.02;100.00
11987;BME280;6053;51.382;6.768;2022-09-09T12:49:34;100480.66;;;19.59;100.00
11987;BME280;6053;51.382;6.768;2022-09-09T12:52:08;100487.59;;;18.55;100.00
11987;BME280;6053;51.382;6.768;2022-09-09T12:54:45;100487.59;;;18.10;100.00
11987;BME280;6053;51.382;6.768;2022-09-09T12:57:15;100488.16;;;18.12;100.00
11987;BME280;6053;51.382;6.768;2022-09-09T12:59:45;100497.47;;;18.42;100.00
11987;BME280;6053;51.382;6.768;2022-09-09T13:02:26;100515.22;;;17.52;100.00
11987;BME280;6053;51.382;6.768;2022-09-09T13:05:08;100508.53;;;18.18;100.00
11987;BME280;6053;51.382;6.768;2022-09-09T13:07:41;100502.88;;;19.50;100.00
11987;BME280;6053;51.382;6.768;2022-09-09T13:10:12;100504.38;;;18.84;100.00
11987;BME280;6053;51.382;6.768;2022-09-09T13:12:51;100485.16;;;19.06;100.00
11987;BME280;6053;51.382;6.768;2022-09-09T13:15:24;100485.38;;;18.52;100.00
11987;BME280;6053;51.382;6.768;2022-09-09T13:17:56;100481.13;;;19.90;100.00
11987;BME280;6053;51.382;6.768;2022-09-09T13:20:25;100471.03;;;19.70;100.00
11987;BME280;6053;51.382;6.768;2022-09-09T13:22:55;100477.63;;;20.17;100.00
11987;BME280;6053;51.382;6.768;2022-09-09T13:25:26;100474.47;;;19.86;100.00
11987;BME280;6053;51.382;6.768;2022-09-09T13:28:00;100471.72;;;20.37;100.00
11987;BME280;6053;51.382;6.768;2022-09-09T13:30:33;100464.47;;;20.17;100.00
11987;BME280;6053;51.382;6.768;2022-09-09T13:33:21;100467.91;;;21.12;100.00